Time;durP1;ratioP1;P1;durP2;ratioP2;P2;SDS_P1;SDS_P2;PMS_P1;PMS_P2;Temp;Humidity;BMP_temperature;BMP_pressure;BME280_temperature;BME280_humidity;BME280_pressure;Samples;Min_cycle;Max_cycle;Signal;HPM_P1;HPM_P2
2022/07/20 00:02:21;;;;;;;7.85;4.00;;;;;;;21.47;100.00;100555.38;5057253;28;20202;-76
2022/07/20 00:04:49;;;;;;;10.27;3.90;;;;;;;21.79;100.00;100613.59;5056786;28;20265;-76
2022/07/20 00:07:15;;;;;;;6.50;3.97;;;;;;;21.71;100.00;100610.25;5056896;28;20199;-76
2022/07/20 00:12:29;;;;;;;10.05;4.13;;;;;;;21.62;100.00;100597.25;5057521;28;20203;-76
2022/07/20 00:14:56;;;;;;;7.93;3.53;;;;;;;21.48;100.00;100604.59;5057085;28;20695;-76
2022/07/20 00:17:23;;;;;;;6.80;3.92;;;;;;;21.51;100.00;100594.00;5057304;28;20234;-76
2022/07/20 00:19:50;;;;;;;8.45;3.90;;;;;;;21.52;100.00;100596.56;5057456;28;20583;-76
2022/07/20 00:22:17;;;;;;;7.65;4.63;;;;;;;21.41;100.00;100587.16;5056950;28;20593;-75
2022/07/20 00:24:44;;;;;;;9.75;4.28;;;;;;;21.35;100.00;100582.00;5056819;28;20214;-76
2022/07/20 00:27:10;;;;;;;11.57;4.53;;;;;;;21.45;100.00;100605.53;5017850;28;20208;-76
2022/07/20 00:29:39;;;;;;;9.30;4.47;;;;;;;21.27;100.00;100580.41;5048645;28;20214;-76
2022/07/20 00:32:06;;;;;;;7.90;4.65;;;;;;;21.39;100.00;100588.97;5038430;28;20681;-77
2022/07/20 00:34:33;;;;;;;9.55;4.28;;;;;;;21.41;100.00;100608.25;5056522;28;20199;-76
2022/07/20 00:36:59;;;;;;;7.20;4.30;;;;;;;21.31;100.00;100604.06;5056890;28;20230;-76
2022/07/20 00:39:26;;;;;;;17.75;4.85;;;;;;;21.32;100.00;100608.47;5056939;28;20200;-76
2022/07/20 00:41:53;;;;;;;13.27;5.85;;;;;;;21.31;100.00;100601.44;5057162;28;20199;-75
2022/07/20 00:44:20;;;;;;;9.27;5.80;;;;;;;21.39;100.00;100610.06;5056298;28;20191;-76
2022/07/20 00:46:48;;;;;;;14.20;5.95;;;;;;;21.25;100.00;100582.22;5046401;28;20204;-76
2022/07/20 00:49:15;;;;;;;9.80;5.88;;;;;;;21.41;100.00;100608.25;5056819;28;20204;-75
2022/07/20 00:51:44;;;;;;;12.23;6.35;;;;;;;21.35;100.00;100595.19;5056917;28;20202;-76
2022/07/20 00:54:11;;;;;;;10.82;5.82;;;;;;;21.28;100.00;100591.81;5056364;28;20239;-76
2022/07/20 00:56:39;;;;;;;12.23;5.53;;;;;;;21.32;100.00;100595.28;5037000;28;20282;-76
2022/07/20 00:59:09;;;;;;;8.30;5.20;;;;;;;21.30;100.00;100591.81;5036956;28;20262;-75
2022/07/20 01:01:37;;;;;;;12.52;5.18;;;;;;;21.27;100.00;100600.63;5056628;28;20239;-76
2022/07/20 01:04:05;;;;;;;10.27;5.25;;;;;;;21.23;100.00;100601.59;5056491;28;20218;-76
2022/07/20 01:06:32;;;;;;;15.68;7.22;;;;;;;21.10;100.00;100595.69;5056543;28;20226;-75
2022/07/20 01:08:59;;;;;;;18.67;6.97;;;;;;;21.15;100.00;100600.91;5056931;28;20207;-76
2022/07/20 01:11:26;;;;;;;12.75;6.30;;;;;;;20.97;100.00;100604.72;5053481;28;20211;-76
2022/07/20 01:14:00;;;;;;;14.77;6.82;;;;;;;21.01;100.00;100593.19;5053496;28;20203;-76
2022/07/20 01:16:27;;;;;;;13.38;7.25;;;;;;;21.09;100.00;100596.56;5053283;28;20200;-77
2022/07/20 01:18:53;;;;;;;13.80;6.10;;;;;;;21.05;100.00;100589.59;5053389;28;20710;-75
2022/07/20 01:21:22;;;;;;;8.18;5.55;;;;;;;20.57;100.00;100511.47;5053673;28;20214;-76
2022/07/20 01:23:49;;;;;;;10.02;5.88;;;;;;;21.08;100.00;100589.53;5053591;28;20214;-76
2022/07/20 01:26:17;;;;;;;14.63;6.18;;;;;;;21.10;100.00;100593.06;5052601;28;20195;-76
2022/07/20 01:28:43;;;;;;;11.40;7.05;;;;;;;21.00;100.00;100586.22;5053319;28;20272;-76
2022/07/20 01:31:10;;;;;;;10.95;5.72;;;;;;;20.95;100.00;100584.53;5052761;28;20613;-76
2022/07/20 01:33:37;;;;;;;13.63;6.45;;;;;;;20.92;100.00;100582.84;5018363;28;20196;-76
2022/07/20 01:36:05;;;;;;;12.63;5.68;;;;;;;20.93;100.00;100596.91;5052521;28;20214;-76
2022/07/20 01:38:33;;;;;;;7.95;5.18;;;;;;;20.81;100.00;100579.53;5017325;28;20219;-76
2022/07/20 01:41:00;;;;;;;13.70;5.25;;;;;;;20.89;100.00;100601.34;5052863;28;20202;-76
2022/07/20 01:43:27;;;;;;;9.73;5.60;;;;;;;20.86;100.00;100593.50;5059771;28;20612;-75
2022/07/20 01:45:53;;;;;;;9.90;5.18;;;;;;;20.69;100.00;100566.59;5015291;28;20200;-76
2022/07/20 01:48:20;;;;;;;12.60;5.05;;;;;;;20.82;100.00;100597.09;5052611;28;20206;-76
2022/07/20 01:50:47;;;;;;;5.63;4.35;;;;;;;20.92;100.00;100613.59;5052651;28;20269;-76
2022/07/20 01:53:14;;;;;;;10.65;5.22;;;;;;;20.96;100.00;100610.00;5052250;28;20682;-76
2022/07/20 01:55:43;;;;;;;11.88;6.65;;;;;;;20.99;100.00;100618.72;5051438;28;20246;-76
2022/07/20 01:58:09;;;;;;;15.10;6.63;;;;;;;20.75;100.00;100593.72;5016101;28;20223;-75
2022/07/20 02:00:36;;;;;;;9.65;6.95;;;;;;;20.84;100.00;100616.38;5052303;28;20203;-76
2022/07/20 02:03:03;;;;;;;14.90;6.38;;;;;;;20.76;100.00;100619.16;5052566;28;20606;-76
2022/07/20 02:05:31;;;;;;;17.83;7.55;;;;;;;20.59;100.00;100591.34;5017262;28;20204;-76
2022/07/20 02:07:57;;;;;;;14.02;7.13;;;;;;;20.57;100.00;100616.88;5053029;28;20202;-76
2022/07/20 02:10:24;;;;;;;8.70;6.07;;;;;;;20.58;100.00;100618.63;5052741;28;20202;-76
2022/07/20 02:12:52;;;;;;;14.48;7.35;;;;;;;20.62;100.00;100617.66;5051596;28;20761;-76
2022/07/20 02:18:05;;;;;;;11.60;6.63;;;;;;;20.63;100.00;100622.03;5052147;28;20227;-76
2022/07/20 02:20:32;;;;;;;9.02;5.85;;;;;;;20.64;100.00;100623.78;5052165;28;20204;-77
2022/07/20 02:22:58;;;;;;;11.55;6.22;;;;;;;20.62;100.00;100612.38;5051434;28;20230;-76
2022/07/20 02:25:25;;;;;;;12.38;5.57;;;;;;;20.25;100.00;100554.16;5050854;28;20200;-76
2022/07/20 02:27:54;;;;;;;17.75;6.47;;;;;;;20.69;100.00;100621.94;5051525;28;20216;-76
2022/07/20 02:30:21;;;;;;;10.77;6.28;;;;;;;20.80;100.00;100619.97;5016316;28;20188;-75
2022/07/20 02:32:48;;;;;;;8.93;6.13;;;;;;;20.69;100.00;100616.69;5051670;28;20219;-76
2022/07/20 02:35:15;;;;;;;10.15;5.80;;;;;;;20.68;100.00;100622.84;5051040;28;20199;-76
2022/07/20 02:37:41;;;;;;;11.98;6.40;;;;;;;20.65;100.00;100630.81;5051848;28;20918;-76
2022/07/20 02:40:09;;;;;;;15.15;6.93;;;;;;;20.72;100.00;100627.16;5052333;28;20200;-76
2022/07/20 02:42:36;;;;;;;10.80;5.90;;;;;;;20.67;100.00;100631.63;5051724;28;20196;-76
2022/07/20 02:45:06;;;;;;;9.88;5.60;;;;;;;20.66;100.00;100632.50;5051154;28;20200;-76
2022/07/20 02:47:41;;;;;;;9.20;5.55;;;;;;;20.53;100.00;100631.88;5007601;28;20681;-75
2022/07/20 02:50:09;;;;;;;8.45;6.20;;;;;;;20.46;100.00;100634.63;5031777;28;20204;-76
2022/07/20 02:52:36;;;;;;;9.27;5.88;;;;;;;20.25;100.00;100625.28;5031909;28;20199;-76
2022/07/20 02:55:03;;;;;;;9.23;5.32;;;;;;;20.19;100.00;100620.97;5001739;28;20219;-75
2022/07/20 02:57:30;;;;;;;10.25;5.75;;;;;;;20.46;100.00;100650.44;5051877;28;20238;-75
2022/07/20 02:59:57;;;;;;;9.02;5.18;;;;;;;20.41;100.00;100631.19;5051342;28;20664;-77
2022/07/20 03:02:25;;;;;;;12.25;5.95;;;;;;;20.54;100.00;100643.28;5051362;28;20195;-76
2022/07/20 03:04:52;;;;;;;15.00;5.88;;;;;;;20.46;100.00;100635.50;5051472;28;20199;-76
2022/07/20 03:07:19;;;;;;;14.45;5.38;;;;;;;20.54;100.00;100649.44;5051427;28;20214;-76
2022/07/20 03:09:46;;;;;;;11.32;5.45;;;;;;;20.37;100.00;100645.34;5051541;28;20195;-75
2022/07/20 03:12:12;;;;;;;10.52;4.88;;;;;;;20.49;100.00;100645.97;5051062;28;20192;-76
2022/07/20 03:14:39;;;;;;;9.90;4.82;;;;;;;20.46;100.00;100624.09;5050673;28;20680;-77
2022/07/20 03:17:06;;;;;;;7.95;4.40;;;;;;;20.63;100.00;100638.72;5016077;28;20199;-77
2022/07/20 03:19:34;;;;;;;11.13;5.65;;;;;;;20.77;100.00;100649.00;5051394;28;20227;-76
2022/07/20 03:22:01;;;;;;;9.98;5.63;;;;;;;20.84;100.00;100647.13;5050100;28;20203;-77
2022/07/20 03:24:28;;;;;;;17.48;8.45;;;;;;;20.92;100.00;100634.69;5050915;28;20572;-77
2022/07/20 03:26:55;;;;;;;19.00;8.05;;;;;;;21.09;100.00;100654.56;5050661;28;20195;-75
2022/07/20 03:29:21;;;;;;;15.18;8.48;;;;;;;21.14;100.00;100658.03;5051354;28;20207;-75
2022/07/20 03:31:48;;;;;;;9.80;6.68;;;;;;;21.30;100.00;100650.69;5051053;28;20203;-76
2022/07/20 03:34:15;;;;;;;9.15;6.63;;;;;;;21.65;100.00;100655.28;5050360;28;20671;-77
2022/07/20 03:36:43;;;;;;;12.75;7.18;;;;;;;22.14;95.95;100661.25;5050562;28;20226;-76
2022/07/20 03:39:10;;;;;;;14.52;7.65;;;;;;;22.46;91.60;100649.91;5031930;28;20289;-74
2022/07/20 03:41:37;;;;;;;17.80;8.48;;;;;;;22.83;87.99;100663.06;5050515;28;20575;-76
2022/07/20 03:44:04;;;;;;;19.42;9.02;;;;;;;23.24;85.44;100667.28;5015515;28;20210;-77
2022/07/20 03:46:30;;;;;;;16.42;8.38;;;;;;;23.52;84.52;100664.75;5050231;28;20206;-75
2022/07/20 03:48:57;;;;;;;10.65;6.43;;;;;;;23.98;83.80;100661.59;5049887;28;20203;-75
2022/07/20 03:51:24;;;;;;;18.80;8.23;;;;;;;24.32;78.82;100654.38;5050747;28;20199;-74
2022/07/20 03:53:52;;;;;;;14.88;7.78;;;;;;;25.03;74.82;100665.25;5050268;28;20230;-76
2022/07/20 03:56:19;;;;;;;15.73;8.68;;;;;;;25.42;69.37;100667.41;5050410;28;20195;-75
2022/07/20 03:58:46;;;;;;;22.25;9.40;;;;;;;26.03;67.48;100666.88;5015942;28;20578;-76
2022/07/20 04:01:13;;;;;;;19.52;9.60;;;;;;;26.45;65.01;100663.44;5050669;28;20635;-75
2022/07/20 04:03:40;;;;;;;18.33;8.82;;;;;;;27.22;60.28;100676.09;5050606;28;20209;-76
2022/07/20 04:06:07;;;;;;;14.98;8.60;;;;;;;27.34;58.62;100642.75;5015398;28;20214;-77
2022/07/20 04:08:34;;;;;;;20.63;8.98;;;;;;;28.05;55.99;100677.63;5050453;28;20207;-77
2022/07/20 04:11:02;;;;;;;14.90;8.43;;;;;;;28.33;53.80;100687.88;5050436;28;20198;-76
2022/07/20 04:13:29;;;;;;;15.85;7.45;;;;;;;28.28;51.31;100676.56;5051038;28;20216;-77
2022/07/20 04:15:56;;;;;;;11.88;6.88;;;;;;;28.39;49.38;100676.03;5031567;28;20203;-77
2022/07/20 04:18:23;;;;;;;8.32;5.20;;;;;;;28.47;47.14;100668.50;5049961;28;20223;-76
2022/07/20 04:20:50;;;;;;;15.20;7.85;;;;;;;28.39;49.15;100686.72;5061058;28;20693;-76
2022/07/20 04:23:16;;;;;;;25.65;9.73;;;;;;;28.14;50.12;100676.38;5060523;28;20201;-76
2022/07/20 04:25:43;;;;;;;11.95;7.93;;;;;;;28.13;49.29;100631.09;5059257;28;20198;-73
2022/07/20 04:28:12;;;;;;;16.83;7.70;;;;;;;29.07;48.88;100695.78;5059798;28;20191;-77
2022/07/20 04:30:38;;;;;;;18.33;6.72;;;;;;;29.11;47.36;100694.69;5059235;28;20201;-75
2022/07/20 04:33:05;;;;;;;9.75;6.25;;;;;;;29.64;47.63;100698.09;5056309;28;20194;-74
2022/07/20 04:35:32;;;;;;;11.15;5.93;;;;;;;30.25;46.48;100686.72;5059636;28;20191;-75
2022/07/20 04:37:59;;;;;;;12.38;5.47;;;;;;;30.70;46.42;100700.16;5059249;28;20309;-75
2022/07/20 04:40:26;;;;;;;13.05;5.25;;;;;;;30.23;47.80;100697.50;5058011;28;20207;-75
2022/07/20 04:42:53;;;;;;;13.88;6.18;;;;;;;30.49;46.39;100696.03;5054545;28;20745;-75
2022/07/20 04:45:21;;;;;;;12.55;6.28;;;;;;;30.35;47.46;100691.44;5050259;28;20210;-75
2022/07/20 04:47:48;;;;;;;6.85;5.88;;;;;;;30.52;47.00;100681.63;5053918;28;20675;-73
2022/07/20 04:50:15;;;;;;;9.82;6.10;;;;;;;30.26;48.44;100696.44;5047427;28;20202;-74
2022/07/20 04:52:42;;;;;;;11.07;6.05;;;;;;;30.38;48.85;100687.72;5014025;28;20203;-74
2022/07/20 04:55:09;;;;;;;9.88;5.63;;;;;;;30.95;48.83;100688.84;5052892;28;20241;-75
2022/07/20 04:57:36;;;;;;;12.82;6.13;;;;;;;31.31;48.63;100688.50;5054484;28;20210;-71
2022/07/20 05:00:04;;;;;;;63.72;39.42;;;;;;;31.63;46.67;100689.22;5045208;28;20223;-74
2022/07/20 05:02:33;;;;;;;35.70;18.88;;;;;;;31.36;46.20;100697.09;5049105;28;20290;-72
2022/07/20 05:05:00;;;;;;;9.65;5.75;;;;;;;32.16;44.90;100696.56;5053544;28;20199;-74
2022/07/20 05:07:26;;;;;;;17.67;6.30;;;;;;;32.17;44.33;100693.78;5035590;28;20206;-74
2022/07/20 05:09:53;;;;;;;9.20;6.00;;;;;;;32.43;44.20;100702.81;5047347;28;20687;-76
2022/07/20 05:12:20;;;;;;;12.13;5.97;;;;;;;32.44;45.24;100710.78;5050214;28;20203;-76
2022/07/20 05:14:47;;;;;;;8.18;6.07;;;;;;;32.55;45.07;100706.50;5046135;28;20199;-75
2022/07/20 05:17:14;;;;;;;12.77;5.55;;;;;;;32.93;43.68;100708.38;5018584;28;20619;-75
2022/07/20 05:19:42;;;;;;;11.70;7.32;;;;;;;33.23;43.88;100720.75;5053343;28;20607;-74
2022/07/20 05:22:09;;;;;;;14.32;7.25;;;;;;;33.47;43.59;100724.41;5053390;28;20203;-76
2022/07/20 05:24:36;;;;;;;10.80;6.65;;;;;;;33.42;43.63;100691.63;5053403;28;20214;-77
2022/07/20 05:27:03;;;;;;;9.00;5.97;;;;;;;33.29;43.58;100709.56;5039622;28;20230;-76
2022/07/20 05:29:29;;;;;;;11.15;7.25;;;;;;;33.38;44.05;100714.31;5053301;28;20304;-75
2022/07/20 05:31:56;;;;;;;12.55;7.35;;;;;;;32.97;44.76;100709.03;5053241;28;20290;-75
2022/07/20 05:34:23;;;;;;;16.80;7.05;;;;;;;33.11;44.45;100724.25;5053040;28;20206;-76
2022/07/20 05:36:51;;;;;;;13.35;7.30;;;;;;;32.87;45.03;100729.44;5053103;28;20680;-76
2022/07/20 05:39:18;;;;;;;8.43;6.82;;;;;;;32.78;45.37;100717.50;5053127;28;20241;-77
2022/07/20 05:41:47;;;;;;;13.18;7.25;;;;;;;32.58;46.70;100731.34;5039496;28;20195;-77
2022/07/20 05:44:14;;;;;;;10.75;6.63;;;;;;;32.78;44.96;100733.63;5018662;28;20294;-76
2022/07/20 05:46:40;;;;;;;8.40;6.95;;;;;;;32.75;44.97;100725.75;5053016;28;20225;-75
2022/07/20 05:49:07;;;;;;;10.48;6.90;;;;;;;32.24;45.12;100731.84;5053063;28;20207;-76
2022/07/20 05:51:35;;;;;;;12.73;6.32;;;;;;;32.20;44.94;100711.50;5052612;28;20215;-76
2022/07/20 05:54:04;;;;;;;16.70;6.25;;;;;;;32.17;44.82;100730.50;5052275;28;20733;-75
2022/07/20 05:56:32;;;;;;;13.55;6.65;;;;;;;31.22;45.96;100721.19;5033722;28;20688;-74
2022/07/20 05:58:59;;;;;;;17.80;6.30;;;;;;;31.16;46.95;100733.16;5052458;28;20219;-72
2022/07/20 06:01:26;;;;;;;16.20;6.43;;;;;;;30.89;46.55;100724.88;5052784;28;20195;-72
2022/07/20 06:03:53;;;;;;;8.30;5.90;;;;;;;30.60;46.61;100730.22;5033780;28;20209;-72
2022/07/20 06:06:19;;;;;;;15.05;5.85;;;;;;;30.87;46.46;100729.50;5052967;28;20210;-73
2022/07/20 06:08:46;;;;;;;12.98;5.78;;;;;;;31.22;44.23;100734.59;5052554;28;20210;-73
2022/07/20 06:11:14;;;;;;;15.40;5.88;;;;;;;31.26;39.58;100738.81;5052790;28;20202;-73
2022/07/20 06:13:41;;;;;;;12.73;5.88;;;;;;;31.40;43.26;100730.81;5052538;28;20203;-73
2022/07/20 06:16:08;;;;;;;13.52;5.60;;;;;;;31.41;42.33;100727.19;5052024;28;20199;-75
2022/07/20 06:18:35;;;;;;;13.45;6.25;;;;;;;31.38;43.23;100727.38;5033449;28;20241;-76
2022/07/20 06:21:02;;;;;;;12.95;5.15;;;;;;;31.16;43.81;100737.66;5052123;28;20206;-74
2022/07/20 06:23:29;;;;;;;7.30;5.18;;;;;;;30.87;44.41;100740.19;5052244;28;20209;-73
2022/07/20 06:25:57;;;;;;;18.63;5.50;;;;;;;30.65;46.12;100737.03;5054524;28;20202;-73
2022/07/20 06:28:26;;;;;;;6.90;4.90;;;;;;;30.32;46.01;100725.56;5051098;28;20210;-74
2022/07/20 06:30:53;;;;;;;9.13;4.97;;;;;;;30.07;46.24;100723.38;5051751;28;20198;-73
2022/07/20 06:33:19;;;;;;;13.25;4.63;;;;;;;30.07;45.83;100723.38;5051884;28;20245;-72
2022/07/20 06:35:46;;;;;;;14.68;4.82;;;;;;;29.62;45.60;100701.78;5051547;28;20203;-73
2022/07/20 06:38:13;;;;;;;10.05;4.40;;;;;;;29.11;46.23;100724.06;5051747;28;20199;-72
2022/07/20 06:40:40;;;;;;;8.95;4.28;;;;;;;28.69;45.79;100717.25;5013589;28;20199;-72
2022/07/20 06:43:07;;;;;;;7.68;4.03;;;;;;;27.99;46.67;100720.59;5054082;28;20194;-73
2022/07/20 06:45:35;;;;;;;7.00;4.47;;;;;;;28.17;47.58;100718.03;5016204;28;20699;-72
2022/07/20 06:48:02;;;;;;;6.30;3.75;;;;;;;28.26;45.95;100722.91;5051879;28;20203;-72
2022/07/20 06:50:29;;;;;;;7.75;4.03;;;;;;;28.40;45.04;100718.63;5051503;28;20580;-72
2022/07/20 06:52:56;;;;;;;9.13;3.17;;;;;;;27.69;45.75;100700.66;5051462;28;20210;-75
2022/07/20 06:55:23;;;;;;;13.70;4.45;;;;;;;27.82;44.52;100717.84;5051914;28;20238;-72
2022/07/20 06:57:50;;;;;;;8.68;2.53;;;;;;;27.76;41.31;100723.44;5051688;28;20206;-74
2022/07/20 07:00:17;;;;;;;6.53;2.47;;;;;;;27.81;40.45;100721.44;5051604;28;20245;-72
2022/07/20 07:02:45;;;;;;;3.97;2.28;;;;;;;28.00;39.03;100724.97;5051810;28;20213;-73
2022/07/20 07:05:12;;;;;;;5.15;2.80;;;;;;;28.12;40.23;100731.56;5051521;28;20297;-73
2022/07/20 07:07:39;;;;;;;3.55;3.22;;;;;;;28.03;40.21;100698.19;5050813;28;20199;-73
2022/07/20 07:10:07;;;;;;;4.53;3.00;;;;;;;28.29;41.52;100728.97;5050456;28;20703;-74
2022/07/20 07:12:33;;;;;;;4.15;3.30;;;;;;;28.33;42.11;100730.53;5016391;28;20682;-73
2022/07/20 07:15:00;;;;;;;6.72;3.60;;;;;;;28.28;42.05;100721.91;5050898;28;20209;-75
2022/07/20 07:17:30;;;;;;;5.05;3.45;;;;;;;27.98;42.50;100676.19;5015894;28;20198;-74
2022/07/20 07:19:59;;;;;;;6.45;3.50;;;;;;;28.45;42.93;100721.09;5050713;28;20669;-73
2022/07/20 07:22:26;;;;;;;4.00;3.03;;;;;;;28.53;41.93;100718.94;5051265;28;20191;-75
2022/07/20 07:24:53;;;;;;;4.95;2.75;;;;;;;28.61;41.11;100722.06;5051070;28;20199;-74
2022/07/20 07:27:19;;;;;;;3.47;2.70;;;;;;;28.58;41.80;100719.56;5051661;28;20207;-73
2022/07/20 07:29:46;;;;;;;6.55;3.03;;;;;;;28.73;41.91;100721.50;5051134;28;20352;-73
2022/07/20 07:32:13;;;;;;;4.97;3.03;;;;;;;28.95;41.25;100724.84;5016556;28;20203;-72
2022/07/20 07:34:40;;;;;;;5.47;2.63;;;;;;;28.53;40.77;100710.91;5022319;28;20187;-74
2022/07/20 07:37:08;;;;;;;10.68;3.33;;;;;;;28.78;40.74;100718.63;5062502;28;20186;-75
2022/07/20 07:39:35;;;;;;;12.30;3.15;;;;;;;28.89;41.61;100714.47;5035683;28;20241;-74
2022/07/20 07:42:02;;;;;;;4.68;2.78;;;;;;;28.99;40.90;100715.72;5071409;28;20221;-73
2022/07/20 07:44:29;;;;;;;10.27;2.85;;;;;;;28.94;42.64;100701.72;5035670;28;20205;-73
2022/07/20 07:46:56;;;;;;;3.95;3.00;;;;;;;28.78;41.96;100694.59;5071172;28;20194;-74
2022/07/20 07:49:22;;;;;;;4.40;3.20;;;;;;;29.06;42.49;100713.59;5071085;28;20236;-74
2022/07/20 07:51:49;;;;;;;4.82;3.22;;;;;;;29.09;42.22;100704.56;5071035;28;20206;-73
2022/07/20 07:54:18;;;;;;;5.50;2.95;;;;;;;29.25;41.77;100697.50;5071287;28;20238;-74
2022/07/20 07:56:44;;;;;;;8.63;3.67;;;;;;;29.46;42.24;100710.63;5070904;28;20647;-73
2022/07/20 07:59:11;;;;;;;9.48;3.42;;;;;;;29.53;40.82;100695.13;5061988;28;20221;-72
2022/07/20 08:01:38;;;;;;;4.25;3.85;;;;;;;29.68;40.12;100715.66;5060205;28;20600;-73
2022/07/20 08:04:06;;;;;;;8.95;3.60;;;;;;;29.61;40.57;100713.44;5059848;28;20198;-73
2022/07/20 08:06:33;;;;;;;6.55;3.65;;;;;;;29.65;38.83;100715.84;5062159;28;20610;-73
2022/07/20 08:09:00;;;;;;;3.65;3.33;;;;;;;29.58;39.51;100698.41;5062379;28;20205;-74
2022/07/20 08:11:28;;;;;;;3.63;3.03;;;;;;;29.49;40.09;100704.25;5029298;28;20273;-73
2022/07/20 08:13:55;;;;;;;7.38;2.70;;;;;;;29.51;40.00;100705.03;5071080;28;20213;-73
2022/07/20 08:16:22;;;;;;;12.10;3.03;;;;;;;29.05;39.51;100678.00;5055038;28;20202;-74
2022/07/20 08:18:49;;;;;;;3.17;2.78;;;;;;;29.39;40.31;100700.34;5050746;28;20199;-74
2022/07/20 08:21:16;;;;;;;3.17;2.88;;;;;;;29.69;39.10;100700.50;5054228;28;20202;-77
2022/07/20 08:23:42;;;;;;;3.47;2.30;;;;;;;29.58;38.78;100697.53;5062922;28;20187;-76
2022/07/20 08:26:10;;;;;;;3.83;2.60;;;;;;;29.81;39.44;100700.72;5072523;28;20208;-75
2022/07/20 08:28:39;;;;;;;4.75;2.92;;;;;;;30.04;39.38;100693.28;5074763;28;20194;-76
2022/07/20 08:31:06;;;;;;;5.82;3.10;;;;;;;30.12;37.99;100696.34;5063827;28;20190;-75
2022/07/20 08:33:33;;;;;;;7.65;3.13;;;;;;;30.00;38.04;100696.09;5054431;28;20644;-75
2022/07/20 08:36:00;;;;;;;3.30;3.00;;;;;;;30.19;37.89;100689.72;5054561;28;20228;-74
2022/07/20 08:38:27;;;;;;;5.80;2.80;;;;;;;30.34;37.00;100694.19;5054493;28;20616;-75
2022/07/20 08:40:54;;;;;;;4.00;2.90;;;;;;;30.01;37.96;100681.78;5054695;28;20237;-74
2022/07/20 08:43:21;;;;;;;4.45;3.20;;;;;;;29.98;38.22;100681.94;5059007;28;20217;-74
2022/07/20 08:45:50;;;;;;;5.35;2.83;;;;;;;30.02;37.38;100672.81;5062066;28;20195;-73
2022/07/20 08:48:19;;;;;;;11.90;3.67;;;;;;;30.15;37.20;100672.09;5063398;28;20239;-72
2022/07/20 08:50:46;;;;;;;2.55;2.08;;;;;;;30.08;37.55;100676.06;4995834;28;20679;-73
2022/07/20 08:53:13;;;;;;;3.35;2.60;;;;;;;30.12;36.66;100678.50;5062614;28;20190;-71
2022/07/20 08:55:40;;;;;;;7.40;2.47;;;;;;;30.10;37.15;100680.41;5062565;28;20219;-75
2022/07/20 08:58:07;;;;;;;8.63;2.45;;;;;;;30.19;35.85;100669.19;5021213;28;20202;-78
2022/07/20 09:00:34;;;;;;;2.97;2.22;;;;;;;29.71;36.40;100672.75;5034225;28;20227;-76
2022/07/20 09:03:04;;;;;;;3.28;2.40;;;;;;;29.80;36.40;100677.59;5039529;28;20204;-72
2022/07/20 09:05:33;;;;;;;2.33;2.22;;;;;;;30.14;35.54;100675.75;5053665;28;20199;-75
2022/07/20 09:08:00;;;;;;;5.20;2.45;;;;;;;30.17;35.28;100676.44;5007043;28;20211;-74
2022/07/20 09:10:30;;;;;;;3.85;2.28;;;;;;;30.32;35.03;100674.72;5053995;28;20205;-76
2022/07/20 09:12:59;;;;;;;4.57;2.80;;;;;;;30.39;34.63;100679.59;5053994;28;20211;-77
2022/07/20 09:15:33;;;;;;;6.70;2.40;;;;;;;30.45;34.90;100678.44;5040885;28;20199;-78
2022/07/20 09:18:16;;;;;;;11.73;4.68;;;;;;;30.39;35.44;100668.06;5031686;28;20196;-74
2022/07/20 09:20:45;;;;;;;2.97;2.70;;;;;;;30.46;35.53;100669.47;5038032;28;20226;-77
2022/07/20 09:23:15;;;;;;;4.95;2.60;;;;;;;30.39;34.65;100633.25;5053362;28;20222;-77
2022/07/20 09:25:54;;;;;;;4.38;2.80;;;;;;;30.68;34.14;100656.53;5052961;28;20606;-78
2022/07/20 09:28:22;;;;;;;15.77;3.97;;;;;;;30.56;34.76;100641.19;5050966;28;20195;-75
2022/07/20 10:24:22;;;;;;;6.82;3.00;;;;;;;31.39;33.60;100589.69;5087897;27;20862;-75
2022/07/20 10:26:51;;;;;;;10.40;2.90;;;;;;;31.40;33.71;100572.63;5088314;28;20205;-74
2022/07/20 10:29:32;;;;;;;5.50;3.00;;;;;;;31.59;33.31;100575.91;5087927;28;20209;-73
2022/07/20 10:32:01;;;;;;;6.15;2.58;;;;;;;31.68;32.13;100575.31;5088212;28;20205;-74
2022/07/20 10:34:33;;;;;;;3.65;2.10;;;;;;;31.40;32.96;100559.22;5087817;28;20202;-74
2022/07/20 10:37:29;;;;;;;4.78;2.40;;;;;;;31.30;32.22;100576.84;5087784;28;20194;-74
2022/07/20 10:40:10;;;;;;;2.70;2.50;;;;;;;31.47;31.90;100552.53;5088027;28;20658;-74
2022/07/20 10:42:38;;;;;;;5.93;2.50;;;;;;;31.62;32.01;100570.34;5088093;28;20601;-75
2022/07/20 10:45:34;;;;;;;4.85;2.00;;;;;;;31.87;31.51;100567.81;5087866;28;20197;-75
2022/07/20 10:48:18;;;;;;;7.65;2.80;;;;;;;31.73;32.16;100554.44;5087958;28;20213;-75
2022/07/20 10:50:48;;;;;;;7.65;3.10;;;;;;;32.09;31.84;100564.59;5087836;28;20201;-75
2022/07/20 10:53:34;;;;;;;4.28;2.53;;;;;;;31.96;32.51;100561.81;5087481;28;20240;-75
2022/07/20 10:56:05;;;;;;;2.20;2.00;;;;;;;32.03;32.29;100556.94;5088034;28;20189;-74
2022/07/20 10:58:33;;;;;;;5.07;2.15;;;;;;;31.98;32.12;100561.72;5087873;28;20238;-75
2022/07/20 11:01:03;;;;;;;4.00;2.20;;;;;;;31.85;32.05;100550.97;5087718;28;20198;-74
2022/07/20 11:03:31;;;;;;;4.55;1.90;;;;;;;31.65;32.74;100556.72;5087507;28;20236;-74
2022/07/20 11:06:07;;;;;;;3.72;2.10;;;;;;;31.63;33.55;100552.44;5087700;28;20209;-74
2022/07/20 11:08:34;;;;;;;3.08;2.08;;;;;;;31.95;32.94;100546.69;5052039;28;20670;-74
2022/07/20 11:11:03;;;;;;;2.50;2.25;;;;;;;31.37;32.32;100529.94;5087855;28;20193;-77
2022/07/20 11:13:30;;;;;;;4.88;2.65;;;;;;;31.52;33.04;100547.78;5087549;28;20202;-73
2022/07/20 11:16:01;;;;;;;8.65;2.78;;;;;;;31.84;32.37;100534.94;5087474;28;20723;-73
2022/07/20 11:18:32;;;;;;;2.40;2.20;;;;;;;31.92;31.21;100517.41;5087226;28;20216;-73
2022/07/20 11:21:01;;;;;;;5.47;2.10;;;;;;;31.82;33.84;100508.22;5087470;28;20204;-74
2022/07/20 11:23:38;;;;;;;4.57;2.55;;;;;;;31.83;31.45;100503.72;5087226;28;20238;-76
2022/07/20 11:26:07;;;;;;;6.80;2.90;;;;;;;32.10;32.58;100522.53;5087377;28;20206;-73
2022/07/20 11:28:35;;;;;;;3.58;2.50;;;;;;;31.89;32.07;100514.88;5085328;28;20214;-74
2022/07/20 11:31:03;;;;;;;10.75;2.80;;;;;;;31.90;30.93;100510.38;5085261;28;20205;-74
2022/07/20 11:33:33;;;;;;;4.60;2.25;;;;;;;31.76;31.90;100526.53;5085664;28;20580;-73
2022/07/20 11:36:03;;;;;;;4.72;2.90;;;;;;;32.29;31.85;100520.31;5073022;28;20701;-73
2022/07/20 11:38:38;;;;;;;8.40;2.65;;;;;;;32.36;31.76;100516.22;5073592;28;20198;-73
2022/07/20 11:41:08;;;;;;;6.88;2.90;;;;;;;32.54;32.23;100506.91;5073104;28;20251;-73
2022/07/20 11:43:35;;;;;;;4.43;2.90;;;;;;;32.60;32.00;100506.53;5073090;28;20243;-73
2022/07/20 11:46:13;;;;;;;5.18;3.05;;;;;;;32.34;31.18;100502.94;5073322;28;20206;-74
2022/07/20 11:48:41;;;;;;;4.40;2.20;;;;;;;32.43;31.66;100502.28;5073260;28;20198;-74
2022/07/20 11:51:08;;;;;;;3.58;2.67;;;;;;;32.23;31.81;100510.00;5073025;28;20228;-72
2022/07/20 11:53:38;;;;;;;2.30;2.03;;;;;;;32.25;31.60;100500.03;5072966;28;20206;-73
2022/07/20 11:56:12;;;;;;;2.35;2.17;;;;;;;32.45;31.55;100491.44;5072943;28;20210;-73
2022/07/20 11:58:39;;;;;;;2.95;2.40;;;;;;;32.65;33.90;100487.41;5073280;28;20209;-73
2022/07/20 12:01:08;;;;;;;3.33;2.30;;;;;;;32.58;31.18;100489.63;5073110;28;20198;-72
2022/07/20 12:03:37;;;;;;;3.95;2.50;;;;;;;32.40;32.00;100482.84;5073052;28;20717;-74
2022/07/20 12:06:07;;;;;;;2.15;2.05;;;;;;;32.63;31.38;100479.47;5072707;28;20213;-74
2022/07/20 12:08:34;;;;;;;5.70;2.33;;;;;;;32.88;31.36;100471.41;5072849;28;20213;-73
2022/07/20 12:11:02;;;;;;;3.25;2.40;;;;;;;32.97;31.27;100477.06;5072558;28;20214;-74
2022/07/20 12:13:31;;;;;;;2.70;2.47;;;;;;;33.09;30.29;100481.56;5073041;28;20630;-73
2022/07/20 12:16:02;;;;;;;3.78;2.40;;;;;;;32.99;30.84;100480.50;5069636;28;20625;-71
2022/07/20 12:18:37;;;;;;;6.97;2.35;;;;;;;32.87;32.20;100466.13;5072472;28;20673;-72
2022/07/20 12:21:05;;;;;;;4.45;2.30;;;;;;;32.70;30.72;100470.00;5052947;28;20190;-73
2022/07/20 12:23:34;;;;;;;4.43;2.67;;;;;;;32.89;30.84;100466.88;5071940;28;20241;-72